Time;durP1;ratioP1;P1;durP2;ratioP2;P2;SDS_P1;SDS_P2;PMS_P1;PMS_P2;Temp;Humidity;BMP_temperature;BMP_pressure;BME280_temperature;BME280_humidity;BME280_pressure;Samples;Min_cycle;Max_cycle;Signal;HPM_P1;HPM_P2
2021/03/13 00:00:08;;;;;;;4.72;2.10;;;7.30;96.20;;;;;;6131027;28;20055;-81
2021/03/13 00:03:09;;;;;;;9.88;2.75;;;;;;;;;;6144050;28;20405;-82
2021/03/13 00:06:10;;;;;;;4.68;2.33;;;7.50;93.60;;;;;;6131568;28;20031;-81
2021/03/13 00:09:11;;;;;;;8.18;3.35;;;7.40;95.30;;;;;;6138039;28;20038;-81
2021/03/13 00:12:11;;;;;;;7.60;2.28;;;7.70;99.90;;;;;;6137631;28;20057;-80
2021/03/13 00:15:15;;;;;;;5.57;2.28;;;7.50;94.00;;;;;;6154198;28;20035;-81
2021/03/13 00:18:16;;;;;;;3.95;2.10;;;7.60;93.40;;;;;;6154579;28;20028;-81
2021/03/13 00:21:17;;;;;;;4.82;2.08;;;;;;;;;;6149926;28;20050;-81
2021/03/13 00:24:17;;;;;;;4.95;1.88;;;7.70;99.90;;;;;;6168384;28;20054;-84
2021/03/13 00:27:18;;;;;;;5.05;1.92;;;8.00;93.00;;;;;;6150479;28;20038;-82
2021/03/13 00:30:36;;;;;;;6.07;1.75;;;7.60;99.90;;;;;;6131240;28;20028;-84
2021/03/13 00:33:37;;;;;;;4.95;2.10;;;7.80;93.40;;;;;;6139220;28;20076;-79
2021/03/13 00:36:38;;;;;;;8.00;2.03;;;7.70;99.80;;;;;;6122724;28;20039;-81
2021/03/13 00:39:38;;;;;;;7.10;2.30;;;7.70;94.70;;;;;;6129878;28;20055;-84
2021/03/13 00:42:39;;;;;;;7.28;2.00;;;7.80;94.80;;;;;;6139785;28;20051;-81
2021/03/13 00:45:40;;;;;;;5.95;1.90;;;7.60;94.80;;;;;;6130603;28;20034;-81
2021/03/13 00:48:41;;;;;;;5.53;2.08;;;7.60;94.00;;;;;;6142846;28;20462;-81
2021/03/13 00:51:41;;;;;;;8.20;2.13;;;7.70;94.50;;;;;;6145472;28;20241;-83
2021/03/13 00:54:42;;;;;;;11.02;2.35;;;7.80;94.10;;;;;;6136872;28;20077;-84
2021/03/13 00:57:42;;;;;;;5.93;2.05;;;7.60;93.90;;;;;;6133822;28;20147;-81
2021/03/13 01:00:43;;;;;;;4.90;2.20;;;7.60;93.30;;;;;;6153111;28;20114;-84
2021/03/13 01:03:44;;;;;;;4.55;1.90;;;7.70;99.90;;;;;;6133418;28;20050;-82
2021/03/13 01:06:44;;;;;;;6.80;2.33;;;7.70;93.30;;;;;;6133714;28;20027;-84
2021/03/13 01:09:45;;;;;;;5.18;1.88;;;7.80;92.60;;;;;;6153112;28;20093;-81
2021/03/13 01:12:46;;;;;;;8.43;2.20;;;7.80;92.30;;;;;;6151745;28;20041;-84
2021/03/13 01:15:47;;;;;;;5.65;1.80;;;7.70;93.00;;;;;;6129339;28;20477;-81
2021/03/13 01:18:47;;;;;;;4.38;1.70;;;7.70;92.50;;;;;;6148356;28;20106;-83
2021/03/13 01:21:48;;;;;;;4.28;2.05;;;7.80;92.80;;;;;;6152995;28;20393;-83
2021/03/13 01:24:49;;;;;;;7.00;2.58;;;8.10;92.60;;;;;;6145390;28;20042;-81
2021/03/13 01:27:49;;;;;;;7.57;2.33;;;7.70;92.50;;;;;;6133156;28;20031;-82
2021/03/13 01:30:50;;;;;;;5.82;2.53;;;7.70;99.90;;;;;;6136297;28;20488;-81
2021/03/13 01:33:51;;;;;;;5.55;1.77;;;;;;;;;;6136626;28;20035;-81
2021/03/13 01:36:52;;;;;;;7.60;2.33;;;;;;;;;;6136898;28;20038;-82
2021/03/13 01:39:52;;;;;;;7.57;2.10;;;7.80;91.20;;;;;;6130529;28;20059;-84
2021/03/13 01:42:53;;;;;;;4.22;1.95;;;7.70;92.70;;;;;;6136956;28;20041;-81
2021/03/13 01:45:54;;;;;;;6.28;2.13;;;7.80;99.90;;;;;;6133029;28;20035;-86
2021/03/13 01:48:54;;;;;;;7.28;2.00;;;7.70;92.60;;;;;;6161881;28;20484;-84
2021/03/13 01:51:55;;;;;;;4.65;2.20;;;7.70;92.50;;;;;;6142244;28;20078;-81
2021/03/13 01:54:56;;;;;;;5.40;2.22;;;7.70;92.30;;;;;;6136618;28;20035;-80
2021/03/13 01:57:56;;;;;;;6.07;1.77;;;7.70;91.50;;;;;;6127177;28;20089;-81
2021/03/13 02:00:57;;;;;;;7.95;2.47;;;7.60;92.10;;;;;;6131918;28;20536;-80
2021/03/13 02:03:59;;;;;;;6.40;2.00;;;7.70;91.50;;;;;;6152545;28;20949;-82
2021/03/13 02:07:24;;;;;;;3.97;2.13;;;7.70;90.90;;;;;;6134862;28;20462;-80
2021/03/13 02:10:54;;;;;;;3.03;1.88;;;7.70;98.90;;;;;;6145481;28;20485;-81
2021/03/13 02:14:13;;;;;;;9.45;2.03;;;7.70;89.90;;;;;;6103655;28;20051;-81
2021/03/13 02:17:24;;;;;;;6.97;3.20;;;7.70;91.50;;;;;;6157985;28;20037;-82
2021/03/13 02:20:31;;;;;;;6.40;2.00;;;7.70;90.20;;;;;;6142743;28;20027;-80
2021/03/13 02:23:53;;;;;;;4.07;1.65;;;7.70;90.30;;;;;;6146690;28;20470;-85
2021/03/13 02:27:13;;;;;;;6.60;1.90;;;7.80;90.50;;;;;;6148248;28;20436;-84
2021/03/13 02:30:24;;;;;;;6.88;2.00;;;7.60;90.40;;;;;;6151803;28;20420;-81
2021/03/13 02:33:30;;;;;;;4.68;1.60;;;7.70;91.90;;;;;;6144172;28;20031;-85
2021/03/13 02:36:30;;;;;;;5.70;1.90;;;7.50;99.60;;;;;;6146006;28;20454;-83
2021/03/13 02:39:32;;;;;;;4.38;1.90;;;7.80;99.10;;;;;;6139558;28;20059;-81
2021/03/13 02:42:39;;;;;;;6.25;1.88;;;7.60;98.90;;;;;;6164920;28;20505;-83
2021/03/13 02:45:41;;;;;;;4.97;2.00;;;7.60;97.20;;;;;;6126527;28;20432;-81
2021/03/13 02:48:42;;;;;;;5.50;2.10;;;;;;;;;;6143413;28;20030;-83
2021/03/13 02:51:43;;;;;;;3.45;1.75;;;;;;;;;;6160997;28;20031;-81
2021/03/13 02:54:47;;;;;;;4.30;2.53;;;7.60;99.90;;;;;;6149464;28;20034;-81
2021/03/13 02:57:48;;;;;;;4.20;1.63;;;7.60;99.90;;;;;;6133396;28;20086;-81
2021/03/13 03:00:48;;;;;;;6.43;2.00;;;7.60;99.70;;;;;;6139191;28;20521;-81
2021/03/13 03:03:49;;;;;;;6.63;2.08;;;7.80;98.00;;;;;;6140115;28;20113;-81
2021/03/13 03:06:51;;;;;;;5.57;1.85;;;7.70;92.20;;;;;;6146689;28;20031;-81
2021/03/13 03:09:52;;;;;;;3.38;1.70;;;7.60;92.30;;;;;;6142153;28;20034;-84
2021/03/13 03:12:53;;;;;;;6.28;1.92;;;7.60;92.40;;;;;;6148243;28;20043;-81
2021/03/13 03:15:54;;;;;;;1.92;1.58;;;7.60;91.80;;;;;;6132533;28;20087;-81
2021/03/13 03:18:56;;;;;;;5.30;2.28;;;7.60;91.20;;;;;;6149004;28;20433;-83
2021/03/13 03:21:56;;;;;;;4.57;1.73;;;7.60;91.20;;;;;;6132942;28;20363;-81
2021/03/13 03:24:57;;;;;;;5.55;1.88;;;7.70;99.00;;;;;;6152759;28;20031;-81
2021/03/13 03:27:58;;;;;;;7.90;2.22;;;7.70;91.00;;;;;;6155680;28;20394;-80
2021/03/13 03:30:58;;;;;;;5.80;1.80;;;7.70;90.30;;;;;;6134291;28;20068;-81
2021/03/13 03:33:59;;;;;;;5.47;2.05;;;7.70;90.40;;;;;;6152379;28;20022;-81
2021/03/13 03:37:00;;;;;;;5.53;1.40;;;7.70;90.10;;;;;;6151528;28;20042;-86
2021/03/13 03:40:00;;;;;;;3.05;1.90;;;7.70;90.90;;;;;;6154947;28;20489;-81
2021/03/13 03:43:08;;;;;;;4.25;1.70;;;7.70;91.00;;;;;;6130571;28;20038;-84
2021/03/13 03:46:09;;;;;;;2.65;1.77;;;7.70;91.20;;;;;;6139115;28;20034;-81
2021/03/13 03:49:10;;;;;;;4.20;1.90;;;7.70;90.60;;;;;;6136389;28;20042;-85
2021/03/13 03:52:10;;;;;;;2.05;1.58;;;7.70;91.30;;;;;;6150459;28;20035;-81
2021/03/13 03:55:11;;;;;;;4.38;1.58;;;7.60;91.40;;;;;;6154737;28;20030;-80
2021/03/13 03:58:13;;;;;;;4.55;1.70;;;7.70;90.90;;;;;;6154553;28;20113;-81
2021/03/13 04:01:14;;;;;;;6.15;2.25;;;7.70;91.00;;;;;;6139001;28;20122;-85
2021/03/13 04:04:15;;;;;;;4.57;1.48;;;;;;;;;;6139014;28;20628;-81
2021/03/13 04:07:15;;;;;;;5.25;1.80;;;7.70;87.50;;;;;;6148003;28;20520;-85
2021/03/13 04:10:16;;;;;;;7.53;1.83;;;7.70;90.80;;;;;;6115630;28;20126;-79
2021/03/13 04:13:18;;;;;;;5.47;2.20;;;7.70;90.40;;;;;;6131856;28;20031;-81
2021/03/13 04:16:20;;;;;;;4.28;2.03;;;7.70;90.60;;;;;;6150646;28;20031;-80
2021/03/13 04:19:21;;;;;;;5.00;2.00;;;7.80;90.20;;;;;;6149939;28;20417;-84
2021/03/13 04:22:24;;;;;;;6.78;1.80;;;7.80;90.00;;;;;;6131398;28;20035;-82
2021/03/13 04:25:26;;;;;;;5.88;2.40;;;8.20;90.00;;;;;;6131077;28;20035;-81
2021/03/13 04:28:26;;;;;;;5.53;2.28;;;7.90;98.00;;;;;;6131188;28;20034;-80
2021/03/13 04:31:31;;;;;;;6.57;2.50;;;7.80;96.20;;;;;;6148992;28;20113;-83
2021/03/13 04:34:31;;;;;;;8.52;2.53;;;7.70;87.60;;;;;;6138686;28;20023;-81
2021/03/13 04:37:32;;;;;;;3.55;1.83;;;;;;;;;;6154003;28;20072;-81
2021/03/13 04:40:33;;;;;;;4.32;2.10;;;7.80;87.60;;;;;;6152341;28;20054;-80
2021/03/13 04:43:34;;;;;;;4.20;1.77;;;7.80;90.80;;;;;;6130844;28;20402;-84
2021/03/13 04:46:37;;;;;;;4.22;1.77;;;7.70;89.90;;;;;;6131224;28;20042;-83
2021/03/13 04:49:38;;;;;;;4.65;2.67;;;7.60;90.20;;;;;;6130947;28;20039;-82
2021/03/13 04:52:38;;;;;;;3.30;1.48;;;7.80;90.50;;;;;;6146573;28;20073;-81
2021/03/13 04:55:39;;;;;;;5.50;1.98;;;7.60;90.30;;;;;;6146805;28;20473;-80
2021/03/13 04:58:40;;;;;;;4.95;1.80;;;7.80;89.00;;;;;;6131072;28;20038;-81
2021/03/13 05:01:40;;;;;;;7.30;1.90;;;8.00;89.90;;;;;;6151687;28;20038;-80
2021/03/13 05:04:41;;;;;;;3.30;1.77;;;7.80;89.50;;;;;;6153084;28;20126;-82
2021/03/13 05:07:42;;;;;;;6.00;1.90;;;7.90;96.70;;;;;;6153312;28;20027;-81
2021/03/13 05:10:42;;;;;;;4.47;1.80;;;7.80;96.70;;;;;;6139819;28;20091;-81
2021/03/13 05:13:43;;;;;;;9.20;2.90;;;7.90;96.90;;;;;;6148397;28;20031;-84
2021/03/13 05:16:44;;;;;;;6.65;2.03;;;7.80;96.50;;;;;;6161362;28;20033;-81
2021/03/13 05:19:45;;;;;;;3.22;1.50;;;7.80;99.90;;;;;;6170670;28;20030;-81
2021/03/13 05:22:46;;;;;;;3.67;1.40;;;7.70;96.50;;;;;;6146236;28;20493;-81
2021/03/13 05:25:47;;;;;;;3.28;1.90;;;8.80;96.30;;;;;;6153377;28;20563;-83
2021/03/13 05:28:48;;;;;;;6.55;2.17;;;7.90;88.30;;;;;;6136744;28;20043;-83
2021/03/13 05:31:48;;;;;;;3.33;1.67;;;7.80;99.90;;;;;;6150299;28;20030;-81
2021/03/13 05:34:50;;;;;;;4.00;1.35;;;;;;;;;;6153023;28;20034;-81
2021/03/13 05:37:51;;;;;;;4.28;1.70;;;;;;;;;;6145342;28;20030;-81
2021/03/13 05:40:52;;;;;;;3.25;1.90;;;;;;;;;;6136695;28;20084;-83
2021/03/13 05:43:53;;;;;;;2.88;1.63;;;;;;;;;;6125050;29;20031;-80
2021/03/13 05:46:53;;;;;;;2.85;1.73;;;7.90;99.90;;;;;;6106335;29;20074;-81
2021/03/13 05:50:04;;;;;;;3.78;1.60;;;7.70;97.40;;;;;;6083171;29;20043;-81
2021/03/13 05:53:05;;;;;;;3.00;1.60;;;8.00;99.90;;;;;;6135628;29;20028;-81
2021/03/13 05:56:07;;;;;;;3.08;1.73;;;7.80;99.90;;;;;;6120975;29;20492;-81
2021/03/13 05:59:08;;;;;;;4.55;1.60;;;;;;;;;;6095631;29;20095;-84
2021/03/13 06:02:09;;;;;;;4.40;1.73;;;8.30;99.90;;;;;;6098245;29;20036;-84
2021/03/13 06:05:10;;;;;;;4.72;1.67;;;;;;;;;;6092333;29;20039;-81
2021/03/13 06:08:13;;;;;;;3.42;1.45;;;8.10;92.30;;;;;;6120897;29;20063;-80
2021/03/13 06:11:15;;;;;;;4.75;1.88;;;8.10;88.40;;;;;;6116549;29;20028;-81
2021/03/13 06:14:16;;;;;;;5.22;1.90;;;8.10;84.90;;;;;;6067201;29;20040;-82
2021/03/13 06:17:17;;;;;;;4.18;1.52;;;8.10;85.80;;;;;;6069628;29;20475;-81
2021/03/13 06:20:29;;;;;;;1.23;1.02;;;8.20;85.40;;;;;;6082837;29;20127;-82
2021/03/13 06:23:32;;;;;;;2.78;1.52;;;8.20;79.60;;;;;;6090749;29;20451;-81
2021/03/13 06:26:55;;;;;;;4.53;1.90;;;8.20;85.10;;;;;;6084921;29;20378;-82
2021/03/13 06:30:06;;;;;;;4.20;1.20;;;8.20;81.20;;;;;;6095819;29;20047;-81
2021/03/13 06:33:30;;;;;;;3.88;2.03;;;8.20;94.40;;;;;;6097481;29;20123;-82
2021/03/13 06:36:30;;;;;;;3.53;1.65;;;8.30;80.00;;;;;;6121221;29;20035;-85
2021/03/13 06:39:38;;;;;;;2.92;1.50;;;8.40;83.60;;;;;;6132435;28;20523;-83
2021/03/13 06:42:39;;;;;;;3.47;2.35;;;8.40;84.20;;;;;;6144089;28;20498;-80
2021/03/13 06:46:12;;;;;;;1.65;1.25;;;8.40;82.90;;;;;;6144008;28;20031;-80
2021/03/13 06:49:12;;;;;;;;;;;8.60;82.00;;;;;;6136412;28;20040;-87
2021/03/13 06:52:20;;;;;;;5.85;1.58;;;8.60;82.80;;;;;;6160754;28;20356;-80
2021/03/13 06:55:24;;;;;;;1.65;1.00;;;8.50;82.30;;;;;;6144477;28;20114;-83
2021/03/13 06:58:29;;;;;;;2.00;1.35;;;8.50;78.20;;;;;;6133842;28;20023;-82
2021/03/13 07:01:31;;;;;;;1.67;1.05;;;8.60;80.60;;;;;;6121205;29;20023;-80
2021/03/13 07:04:32;;;;;;;1.58;1.40;;;8.70;80.90;;;;;;6105630;29;20402;-80
2021/03/13 07:07:33;;;;;;;2.20;1.63;;;8.70;80.40;;;;;;6122737;29;20035;-82
2021/03/13 07:10:34;;;;;;;2.78;1.55;;;8.60;93.30;;;;;;6110322;29;20027;-82
2021/03/13 07:13:42;;;;;;;3.90;1.80;;;8.80;80.60;;;;;;6121935;29;20042;-81
2021/03/13 07:16:43;;;;;;;2.15;1.50;;;8.70;76.30;;;;;;6124369;29;20079;-81
2021/03/13 07:19:44;;;;;;;2.58;1.52;;;8.60;93.40;;;;;;6130202;29;20054;-82
2021/03/13 07:22:45;;;;;;;3.85;1.38;;;8.90;92.40;;;;;;6129354;28;20067;-82
2021/03/13 07:25:45;;;;;;;2.60;1.55;;;8.80;77.10;;;;;;6133900;28;20538;-84
2021/03/13 07:28:46;;;;;;;2.20;1.50;;;8.70;76.10;;;;;;6138463;29;20041;-81
2021/03/13 07:31:51;;;;;;;3.90;2.00;;;8.90;90.30;;;;;;6116407;29;20031;-83
2021/03/13 07:34:57;;;;;;;2.00;1.38;;;8.90;77.30;;;;;;6147413;29;20474;-80
2021/03/13 07:37:57;;;;;;;2.60;1.50;;;8.90;76.70;;;;;;6119833;28;20118;-81
2021/03/13 07:40:58;;;;;;;3.13;1.67;;;8.90;75.40;;;;;;6132563;28;20035;-83
2021/03/13 07:43:59;;;;;;;1.77;1.38;;;9.10;76.80;;;;;;6132411;28;20047;-81
2021/03/13 07:47:00;;;;;;;2.40;2.03;;;9.00;77.60;;;;;;6132263;28;20035;-80
2021/03/13 07:50:02;;;;;;;3.78;1.75;;;8.90;77.30;;;;;;6132445;28;21095;-81
2021/03/13 07:53:02;;;;;;;2.67;1.40;;;8.90;77.60;;;;;;6149474;28;20035;-83
2021/03/13 07:56:05;;;;;;;2.83;1.45;;;8.90;77.70;;;;;;6132567;28;20492;-80
2021/03/13 07:59:11;;;;;;;2.20;1.50;;;8.90;91.60;;;;;;6139215;28;20074;-83
2021/03/13 08:02:44;;;;;;;9.45;1.98;;;9.30;74.80;;;;;;6146003;28;20031;-82
2021/03/13 08:05:55;;;;;;;1.58;1.30;;;9.00;77.30;;;;;;6112797;28;20089;-83
2021/03/13 08:08:56;;;;;;;3.42;1.45;;;9.10;77.30;;;;;;6141513;28;20118;-80
2021/03/13 08:11:58;;;;;;;4.50;1.45;;;9.20;75.00;;;;;;6143452;28;20033;-81
2021/03/13 08:14:59;;;;;;;3.13;1.55;;;9.20;76.40;;;;;;6135605;28;20042;-81
2021/03/13 08:18:00;;;;;;;2.40;2.13;;;9.40;73.70;;;;;;6154234;28;20696;-81
2021/03/13 08:21:01;;;;;;;1.83;1.30;;;9.40;90.30;;;;;;6135158;28;20121;-80
2021/03/13 08:24:02;;;;;;;3.88;2.45;;;9.50;96.00;;;;;;6154754;28;20035;-82
2021/03/13 08:27:03;;;;;;;3.65;1.58;;;;;;;;;;6153526;28;20069;-83
2021/03/13 08:30:19;;;;;;;2.58;1.60;;;9.40;96.60;;;;;;6134035;28;20438;-82
2021/03/13 08:33:26;;;;;;;2.30;1.40;;;9.20;90.40;;;;;;6135961;28;20403;-81
2021/03/13 08:36:27;;;;;;;2.10;1.45;;;9.30;85.10;;;;;;6129849;28;20022;-82
2021/03/13 08:39:35;;;;;;;2.65;1.42;;;9.30;72.20;;;;;;6125093;28;20421;-82
2021/03/13 08:42:36;;;;;;;3.55;1.77;;;9.40;85.00;;;;;;6164489;28;20512;-82
2021/03/13 08:45:37;;;;;;;2.63;1.60;;;9.70;73.50;;;;;;6170178;28;20054;-82
2021/03/13 08:48:59;;;;;;;2.47;1.48;;;9.50;74.00;;;;;;6137538;28;20075;-79
2021/03/13 08:52:09;;;;;;;2.67;1.60;;;9.40;90.90;;;;;;6153394;28;20034;-79
2021/03/13 08:55:10;;;;;;;1.33;1.20;;;9.80;71.30;;;;;;6169705;28;20126;-79
2021/03/13 08:58:10;;;;;;;2.55;2.30;;;9.70;74.60;;;;;;6152103;28;20031;-81
2021/03/13 09:01:18;;;;;;;1.50;1.40;;;9.50;90.50;;;;;;6130980;28;20032;-79
2021/03/13 09:04:22;;;;;;;0.98;0.98;;;9.60;74.20;;;;;;6130435;28;20070;-81
2021/03/13 09:07:23;;;;;;;2.90;1.38;;;9.50;74.00;;;;;;6130780;28;20072;-82
2021/03/13 09:10:24;;;;;;;2.50;1.25;;;;;;;;;;6146307;28;20035;-85
2021/03/13 09:13:25;;;;;;;1.75;1.60;;;9.50;69.60;;;;;;6154425;28;20028;-82
2021/03/13 09:16:25;;;;;;;2.05;1.20;;;9.50;87.70;;;;;;6131110;28;20386;-86
2021/03/13 09:19:26;;;;;;;1.95;1.08;;;;;;;;;;6151546;28;20041;-85
2021/03/13 09:22:27;;;;;;;2.85;1.48;;;9.60;69.40;;;;;;6131316;28;20019;-82
2021/03/13 09:25:28;;;;;;;2.20;1.35;;;9.70;74.50;;;;;;6134574;28;20036;-81
2021/03/13 09:28:28;;;;;;;2.50;1.58;;;9.70;73.10;;;;;;6152953;28;20042;-83
2021/03/13 09:31:29;;;;;;;2.30;1.40;;;9.70;74.00;;;;;;6152841;28;20031;-82
2021/03/13 09:34:34;;;;;;;3.22;1.30;;;9.80;89.60;;;;;;6132697;28;20035;-83
2021/03/13 09:37:41;;;;;;;2.65;1.13;;;9.80;96.10;;;;;;6128387;28;20027;-83
2021/03/13 09:40:42;;;;;;;1.88;1.45;;;9.90;96.10;;;;;;6106497;29;20063;-83
2021/03/13 09:43:43;;;;;;;1.90;1.00;;;;;;;;;;6130191;28;20043;-85
2021/03/13 09:46:44;;;;;;;4.20;1.20;;;;;;;;;;6141088;28;20042;-83
2021/03/13 09:49:46;;;;;;;1.35;1.17;;;10.00;96.00;;;;;;6122551;29;20023;-84
2021/03/13 09:52:48;;;;;;;2.28;1.20;;;10.00;96.10;;;;;;6106553;29;20047;-83
2021/03/13 09:55:49;;;;;;;1.13;0.93;;;9.90;89.80;;;;;;6117877;29;20038;-85
2021/03/13 09:58:58;;;;;;;2.47;1.23;;;8.70;85.20;;;;;;6130336;28;20032;-88
2021/03/13 10:01:59;;;;;;;2.92;1.50;;;;;;;;;;6117025;29;20375;-87
2021/03/13 10:05:00;;;;;;;0.82;0.82;;;;;;;;;;6153556;28;20042;-88
2021/03/13 10:08:08;;;;;;;1.80;1.00;;;10.40;81.70;;;;;;6142976;28;20023;-84
2021/03/13 10:11:09;;;;;;;4.43;2.70;;;10.30;85.30;;;;;;6152765;28;20080;-84
2021/03/13 10:14:17;;;;;;;1.75;1.25;;;10.30;71.70;;;;;;6115852;29;20126;-84
2021/03/13 10:17:18;;;;;;;1.48;1.35;;;10.00;88.80;;;;;;6114962;28;20069;-85
2021/03/13 10:20:19;;;;;;;1.83;1.58;;;10.40;71.50;;;;;;6138473;28;20028;-85
2021/03/13 10:23:21;;;;;;;2.28;1.90;;;10.20;69.40;;;;;;6124866;29;20062;-85
2021/03/13 10:26:21;;;;;;;1.80;1.35;;;10.30;70.40;;;;;;6157423;28;20493;-83
2021/03/13 10:29:25;;;;;;;2.85;1.45;;;10.30;69.70;;;;;;6121425;29;20027;-81
2021/03/13 10:32:30;;;;;;;3.75;1.52;;;10.40;69.90;;;;;;6145643;29;20070;-82
2021/03/13 10:35:33;;;;;;;2.55;1.35;;;10.50;65.60;;;;;;6144307;29;20457;-83
2021/03/13 10:38:49;;;;;;;2.05;1.13;;;10.00;68.80;;;;;;6136951;28;20051;-83
2021/03/13 10:41:54;;;;;;;2.45;1.02;;;12.40;66.70;;;;;;6113641;28;20031;-85
2021/03/13 10:44:54;;;;;;;3.40;1.83;;;10.40;85.00;;;;;;6144849;28;20125;-84
2021/03/13 10:48:06;;;;;;;3.00;1.20;;;10.60;68.30;;;;;;6121169;28;20033;-83
2021/03/13 10:51:07;;;;;;;0.82;0.80;;;10.80;65.60;;;;;;6147103;28;20030;-83
2021/03/13 10:54:30;;;;;;;1.92;1.55;;;10.70;68.90;;;;;;6156595;28;20035;-83
2021/03/13 10:57:30;;;;;;;1.50;1.02;;;10.60;87.60;;;;;;6141263;28;20117;-81
2021/03/13 11:00:31;;;;;;;3.22;1.35;;;10.60;69.10;;;;;;6139977;28;20045;-82
2021/03/13 11:03:32;;;;;;;3.20;1.30;;;10.80;66.10;;;;;;6121288;28;20425;-85
2021/03/13 11:06:34;;;;;;;2.28;1.38;;;10.90;68.10;;;;;;6133226;28;20090;-83
2021/03/13 11:09:35;;;;;;;1.80;1.00;;;;;;;;;;6155294;28;20027;-83
2021/03/13 11:12:36;;;;;;;3.95;1.52;;;10.80;65.90;;;;;;6137154;28;20342;-82
2021/03/13 11:15:37;;;;;;;0.90;0.90;;;11.00;71.70;;;;;;6150243;28;20476;-82
2021/03/13 11:18:38;;;;;;;2.88;1.42;;;;;;;;;;6140157;28;20027;-82
2021/03/13 11:21:38;;;;;;;0.93;0.90;;;10.70;68.70;;;;;;6155522;28;20037;-83
2021/03/13 11:24:39;;;;;;;2.67;2.17;;;10.70;72.50;;;;;;6148997;28;20039;-83
2021/03/13 11:27:40;;;;;;;2.15;1.23;;;10.90;85.00;;;;;;6133094;28;20035;-82
2021/03/13 11:30:40;;;;;;;2.20;1.50;;;10.60;89.90;;;;;;6149992;28;20027;-79
2021/03/13 11:33:41;;;;;;;3.38;2.00;;;10.50;71.90;;;;;;6133035;28;20031;-82
2021/03/13 11:36:41;;;;;;;3.08;1.60;;;10.70;71.10;;;;;;6151912;28;20031;-84
2021/03/13 11:39:42;;;;;;;1.58;1.48;;;;;;;;;;6146817;28;20051;-86
2021/03/13 11:42:43;;;;;;;3.35;2.10;;;10.70;68.30;;;;;;6166969;28;20034;-83
2021/03/13 11:45:44;;;;;;;2.47;2.00;;;;;;;;;;6133870;28;20130;-84
2021/03/13 11:48:45;;;;;;;2.13;1.77;;;10.70;67.00;;;;;;6149557;28;20026;-88
2021/03/13 11:51:55;;;;;;;2.70;2.15;;;10.70;66.40;;;;;;6135379;28;20039;-84
2021/03/13 11:54:55;;;;;;;3.58;1.80;;;10.70;71.20;;;;;;6134650;28;20129;-83
2021/03/13 11:57:56;;;;;;;4.97;1.75;;;11.40;70.50;;;;;;6160621;28;20031;-83
2021/03/13 12:00:59;;;;;;;3.35;2.42;;;11.00;88.50;;;;;;6149202;28;20385;-84
2021/03/13 12:04:00;;;;;;;1.52;1.42;;;11.00;87.30;;;;;;6136851;28;20101;-85
2021/03/13 12:07:04;;;;;;;2.72;2.25;;;10.70;66.50;;;;;;6143856;28;20040;-86
2021/03/13 12:10:05;;;;;;;1.45;1.35;;;10.70;69.70;;;;;;6125911;28;20118;-88
2021/03/13 12:13:05;;;;;;;4.38;2.00;;;10.50;90.20;;;;;;6125143;28;20159;-87
2021/03/13 12:16:06;;;;;;;3.80;1.73;;;10.70;73.80;;;;;;6149637;28;20514;-85
2021/03/13 12:19:07;;;;;;;1.98;1.40;;;;;;;;;;6130575;28;20027;-86
2021/03/13 12:22:08;;;;;;;2.17;1.67;;;10.40;71.00;;;;;;6141171;28;20046;-86
2021/03/13 12:25:09;;;;;;;5.63;2.45;;;12.50;76.50;;;;;;6139197;28;20038;-85
2021/03/13 12:28:10;;;;;;;7.63;4.18;;;;;;;;;;6147448;28;20034;-87
2021/03/13 12:31:11;;;;;;;3.08;2.08;;;10.40;91.30;;;;;;6129733;28;20433;-85
2021/03/13 12:34:12;;;;;;;1.17;1.00;;;;;;;;;;6147695;28;20038;-87
2021/03/13 12:37:13;;;;;;;2.30;1.25;;;10.60;91.00;;;;;;6138050;28;20086;-87
2021/03/13 12:40:14;;;;;;;1.88;1.67;;;10.60;75.20;;;;;;6146865;28;20136;-85
2021/03/13 12:43:24;;;;;;;3.30;3.00;;;10.60;90.40;;;;;;6138727;28;20133;-87
2021/03/13 12:46:24;;;;;;;1.50;1.40;;;10.50;87.80;;;;;;6130546;28;20031;-85
2021/03/13 12:49:25;;;;;;;3.85;2.30;;;;;;;;;;6136645;28;20057;-87
2021/03/13 12:52:26;;;;;;;1.35;1.25;;;10.50;70.30;;;;;;6150050;28;20421;-84
2021/03/13 12:55:27;;;;;;;2.70;1.98;;;10.70;74.70;;;;;;6127600;28;20042;-85
2021/03/13 12:58:28;;;;;;;2.33;2.13;;;11.20;75.00;;;;;;6146176;28;20027;-86
2021/03/13 13:01:28;;;;;;;2.13;1.38;;;10.60;74.50;;;;;;6122149;28;20031;-85
2021/03/13 13:04:30;;;;;;;3.50;1.63;;;;;;;;;;6152916;28;20563;-85
2021/03/13 13:07:31;;;;;;;3.27;2.17;;;;;;;;;;6133165;28;20366;-84
2021/03/13 13:10:32;;;;;;;2.92;1.38;;;;;;;;;;6133631;28;20270;-86
2021/03/13 13:13:33;;;;;;;1.20;1.08;;;10.40;93.00;;;;;;6121751;28;21106;-87
2021/03/13 13:16:34;;;;;;;1.83;1.30;;;;;;;;;;6141621;28;20030;-87
2021/03/13 13:19:35;;;;;;;3.38;1.77;;;;;;;;;;6131872;28;20081;-88
2021/03/13 13:22:36;;;;;;;4.18;2.72;;;9.00;99.90;;;;;;6158681;28;20035;-91
2021/03/13 13:25:37;;;;;;;3.00;1.70;;;8.70;99.90;;;;;;6126476;28;20050;-87
2021/03/13 13:28:38;;;;;;;3.85;1.90;;;;;;;;;;6121886;28;20121;-86
2021/03/13 13:31:39;;;;;;;2.47;1.52;;;;;;;;;;6122163;28;20058;-84
2021/03/13 13:34:40;;;;;;;2.10;1.67;;;;;;;;;;6163190;28;20023;-86
2021/03/13 13:37:41;;;;;;;3.65;1.73;;;;;;;;;;6140158;28;20035;-85
2021/03/13 13:40:42;;;;;;;5.03;2.13;;;;;;;;;;6133110;28;20058;-87
2021/03/13 13:44:14;;;;;;;2.13;1.88;;;7.10;99.90;;;;;;6128678;28;20401;-88
2021/03/13 13:47:20;;;;;;;1.52;1.23;;;;;;;;;;6133426;28;20066;-86
2021/03/13 13:54:18;;;;;;;1.15;1.15;;;;;;;;;;6156070;28;20043;-88
2021/03/13 13:57:19;;;;;;;2.53;1.27;;;;;;;;;;6125893;28;20536;-88
2021/03/13 14:00:22;;;;;;;2.17;1.23;;;6.50;99.90;;;;;;6139450;28;20038;-87
2021/03/13 14:03:23;;;;;;;3.60;1.83;;;;;;;;;;6142980;28;20070;-90
2021/03/13 14:06:23;;;;;;;1.52;1.10;;;6.40;99.90;;;;;;6157151;28;20560;-86
2021/03/13 14:09:24;;;;;;;1.60;1.10;;;6.40;99.90;;;;;;6146937;28;20028;-86
2021/03/13 14:12:24;;;;;;;0.98;0.75;;;6.30;99.90;;;;;;6139511;28;20421;-86
2021/03/13 14:15:26;;;;;;;1.08;1.05;;;;;;;;;;6139277;28;20035;-87
2021/03/13 14:18:26;;;;;;;1.27;1.27;;;6.00;99.90;;;;;;6140052;28;20062;-86
2021/03/13 14:21:27;;;;;;;1.08;1.08;;;;;;;;;;6146756;28;20049;-87
2021/03/13 14:24:28;;;;;;;1.00;0.88;;;5.60;99.90;;;;;;6127450;28;20545;-90
2021/03/13 14:27:29;;;;;;;1.65;1.55;;;;;;;;;;6145171;28;20070;-85
2021/03/13 14:30:30;;;;;;;3.25;2.60;;;;;;;;;;6127189;28;20027;-87
2021/03/13 14:33:31;;;;;;;6.57;4.85;;;5.60;99.90;;;;;;6167532;28;20019;-89
2021/03/13 14:37:11;;;;;;;4.82;3.55;;;5.60;99.90;;;;;;6152079;28;20050;-91
2021/03/13 14:40:12;;;;;;;1.90;1.73;;;5.50;99.90;;;;;;6090867;29;20095;-84
2021/03/13 14:44:08;;;;;;;2.50;2.30;;;5.40;99.90;;;;;;6098389;29;20058;-85
2021/03/13 14:47:09;;;;;;;1.90;1.80;;;5.60;99.90;;;;;;6102902;29;20040;-85
2021/03/13 14:50:10;;;;;;;1.17;1.17;;;5.00;99.90;;;;;;6083321;29;20090;-86
2021/03/13 14:53:11;;;;;;;1.55;1.45;;;5.30;99.90;;;;;;6091748;29;20857;-87
2021/03/13 14:56:12;;;;;;;1.08;1.05;;;;;;;;;;6085852;29;20083;-86
2021/03/13 14:59:13;;;;;;;1.90;1.13;;;5.30;99.90;;;;;;6096377;29;20040;-86
2021/03/13 15:02:14;;;;;;;3.08;2.85;;;5.30;99.90;;;;;;6097987;29;20043;-87
2021/03/13 15:05:15;;;;;;;2.55;2.35;;;;;;;;;;6098278;29;20142;-86
2021/03/13 15:08:19;;;;;;;1.95;1.85;;;5.10;99.90;;;;;;6094426;29;20601;-87
2021/03/13 15:11:20;;;;;;;1.38;1.38;;;5.00;99.90;;;;;;6108818;29;20504;-86
2021/03/13 15:14:21;;;;;;;0.82;0.82;;;4.90;99.90;;;;;;6122102;28;20034;-84
2021/03/13 15:17:22;;;;;;;0.70;0.70;;;;;;;;;;6120375;29;20035;-82
2021/03/13 15:20:23;;;;;;;1.00;1.00;;;5.20;99.90;;;;;;6153409;28;20445;-86
2021/03/13 15:23:23;;;;;;;2.65;0.90;;;5.00;99.90;;;;;;6116608;29;20039;-86
2021/03/13 15:26:24;;;;;;;0.95;0.95;;;;;;;;;;6134341;28;20477;-84
2021/03/13 15:29:25;;;;;;;0.82;0.82;;;4.90;99.90;;;;;;6137680;29;20028;-85
2021/03/13 15:32:25;;;;;;;1.00;0.90;;;5.00;99.90;;;;;;6120711;28;20075;-87
2021/03/13 15:35:30;;;;;;;2.28;0.77;;;;;;;;;;6116587;28;20066;-86
2021/03/13 15:38:32;;;;;;;1.55;1.45;;;4.90;99.90;;;;;;6149838;28;20047;-86
2021/03/13 15:41:39;;;;;;;1.10;1.10;;;4.80;99.90;;;;;;6129919;28;20062;-84
2021/03/13 15:44:40;;;;;;;1.42;1.42;;;4.90;99.90;;;;;;6121625;28;20051;-84
2021/03/13 15:47:41;;;;;;;0.95;0.90;;;4.70;99.90;;;;;;6135111;28;20536;-85
2021/03/13 15:50:45;;;;;;;2.35;1.67;;;4.70;99.90;;;;;;6162786;28;20026;-91
2021/03/13 15:53:46;;;;;;;10.48;2.83;;;4.90;99.90;;;;;;6138267;28;20058;-87
2021/03/13 15:56:49;;;;;;;1.95;1.55;;;5.10;99.90;;;;;;6131776;28;20145;-92
2021/03/13 15:59:50;;;;;;;1.20;0.98;;;4.60;99.90;;;;;;6150639;28;20081;-85
2021/03/13 16:02:53;;;;;;;8.85;1.75;;;;;;;;;;6150594;28;20034;-87
2021/03/13 16:05:54;;;;;;;6.95;4.30;;;4.70;99.90;;;;;;6125575;28;20027;-87
2021/03/13 16:08:55;;;;;;;1.50;1.40;;;;;;;;;;6135006;28;20114;-87
2021/03/13 16:11:59;;;;;;;0.60;0.60;;;;;;;;;;6128613;28;20189;-87
2021/03/13 16:15:00;;;;;;;0.70;0.70;;;;;;;;;;6143251;28;20035;-85
2021/03/13 16:18:07;;;;;;;1.67;1.58;;;;;;;;;;6155967;28;20042;-87
2021/03/13 16:21:08;;;;;;;2.00;1.60;;;;;;;;;;6128145;28;20082;-79
2021/03/13 16:24:09;;;;;;;2.85;1.67;;;;;;;;;;6144548;28;20046;-83
2021/03/13 16:27:10;;;;;;;12.48;2.20;;;5.00;99.90;;;;;;6168497;28;20027;-84